Stickney, Illinois
Current Conditions -  °F | °C
As of 6:53 PM on Friday 24 Oct 2014 (Local Time) from KMDW Reporting Station
Broken Clouds Broken Clouds  
Wind Chill: 65°   Ceiling: 9500
Heat Index: 65°   Visibility: 10mi
Dew Point: 46°   Wind: 0mph
Humidity: 50%   Direction: NA
Pressure: 29.95"   Gusts: NA
Location:  41.789°N, 87.7699°W
Report Text: KMDW 242353Z 00000KT 10SM BKN095 BKN250 18/08 A2995 RMK AO2 SLP141 T01830078 10200 20172 56005
Loading
Personal Weather Stations






























Interactive Weather Map
Tropical Storm Tracking
New forecast layout! Learn more

10-Day Weather Forecast

Advertisements
Track Severe Weather on mobile